Time;durP1;ratioP1;P1;durP2;ratioP2;P2;SDS_P1;SDS_P2;PMS_P1;PMS_P2;Temp;Humidity;BMP_temperature;BMP_pressure;BME280_temperature;BME280_humidity;BME280_pressure;Samples;Min_cycle;Max_cycle;Signal;HPM_P1;HPM_P2
2023/11/09 00:02:13;;;;;;;1.67;1.38;;;8.20;99.90;;;;;;5014003;28;20054;-77
2023/11/09 00:04:39;;;;;;;3.42;1.13;;;8.20;99.90;;;;;;5011916;28;20050;-78
2023/11/09 00:07:07;;;;;;;1.92;1.10;;;8.20;99.90;;;;;;5009469;28;20054;-78
2023/11/09 00:09:35;;;;;;;2.65;0.95;;;8.10;99.90;;;;;;5006869;28;20103;-78
2023/11/09 00:12:02;;;;;;;2.35;1.23;;;8.20;99.90;;;;;;5019748;28;20108;-78
2023/11/09 00:14:28;;;;;;;1.58;1.00;;;8.10;99.90;;;;;;5015234;28;20050;-77
2023/11/09 00:16:55;;;;;;;1.48;1.02;;;8.10;99.90;;;;;;5011230;28;20042;-78
2023/11/09 00:19:22;;;;;;;1.50;1.00;;;8.10;99.90;;;;;;5014052;28;20050;-78
2023/11/09 00:21:49;;;;;;;1.40;0.98;;;8.10;99.90;;;;;;5006355;28;20522;-78
2023/11/09 00:24:15;;;;;;;3.60;1.35;;;8.10;99.90;;;;;;5023013;28;20050;-77
2023/11/09 00:26:45;;;;;;;2.00;1.10;;;8.10;99.90;;;;;;5007785;28;20103;-78
2023/11/09 00:29:13;;;;;;;1.73;0.73;;;8.10;99.90;;;;;;4992861;28;20129;-78
2023/11/09 00:31:40;;;;;;;1.85;0.82;;;8.10;99.90;;;;;;5000966;28;20056;-78
2023/11/09 00:34:09;;;;;;;1.80;1.10;;;8.10;99.90;;;;;;4998436;28;20046;-78
2023/11/09 00:36:36;;;;;;;1.02;0.90;;;8.10;99.90;;;;;;5003038;28;20041;-78
2023/11/09 00:39:04;;;;;;;3.40;1.20;;;8.10;99.90;;;;;;5021571;28;20108;-78
2023/11/09 00:41:31;;;;;;;2.20;1.40;;;8.10;99.90;;;;;;5025431;28;20061;-78
2023/11/09 00:43:57;;;;;;;1.77;0.80;;;8.10;99.90;;;;;;5015203;28;20058;-78
2023/11/09 00:46:24;;;;;;;2.60;1.00;;;8.10;99.90;;;;;;5012082;28;20462;-78
2023/11/09 00:48:51;;;;;;;2.22;0.77;;;8.00;99.90;;;;;;5007999;28;20046;-78
2023/11/09 00:51:18;;;;;;;0.82;0.82;;;8.00;99.90;;;;;;5016351;28;20467;-78
2023/11/09 00:53:45;;;;;;;1.02;0.80;;;8.00;99.90;;;;;;5015466;28;20277;-78
2023/11/09 00:56:14;;;;;;;1.63;1.08;;;8.00;99.90;;;;;;5011929;28;20042;-77
2023/11/09 00:58:41;;;;;;;2.15;1.20;;;8.00;99.90;;;;;;5011430;28;20054;-78
2023/11/09 01:01:08;;;;;;;3.42;1.00;;;8.00;99.90;;;;;;5006403;28;20470;-78
2023/11/09 01:03:35;;;;;;;1.00;0.90;;;8.00;99.90;;;;;;5008015;28;20100;-78
2023/11/09 01:06:05;;;;;;;2.03;1.02;;;7.90;99.90;;;;;;5014940;28;20084;-78
2023/11/09 01:08:32;;;;;;;3.40;1.33;;;7.90;99.90;;;;;;5013579;28;20042;-78
2023/11/09 01:11:05;;;;;;;1.25;0.95;;;7.90;99.90;;;;;;5011826;28;20054;-78
2023/11/09 01:13:34;;;;;;;1.48;0.70;;;7.90;99.90;;;;;;5009433;28;20046;-78
2023/11/09 01:16:02;;;;;;;0.93;0.75;;;7.80;99.90;;;;;;5008825;28;20050;-76
2023/11/09 01:18:29;;;;;;;1.58;0.82;;;7.80;99.90;;;;;;4988148;28;20453;-78
2023/11/09 01:20:56;;;;;;;0.85;0.80;;;7.80;99.90;;;;;;5022169;28;20452;-78
2023/11/09 01:23:23;;;;;;;1.80;1.00;;;7.80;99.90;;;;;;5015337;28;20054;-78
2023/11/09 01:25:50;;;;;;;2.10;1.23;;;7.80;99.90;;;;;;5013290;28;20045;-78
2023/11/09 01:28:17;;;;;;;5.45;2.53;;;7.80;99.90;;;;;;5012963;28;20054;-78
2023/11/09 01:30:46;;;;;;;4.88;2.92;;;7.80;99.90;;;;;;5009173;28;20092;-78
2023/11/09 01:33:13;;;;;;;4.40;2.40;;;7.80;99.90;;;;;;4997523;28;20054;-78
2023/11/09 01:35:40;;;;;;;2.85;1.88;;;7.80;99.90;;;;;;5021973;28;20049;-78
2023/11/09 01:38:07;;;;;;;1.70;1.30;;;7.80;99.90;;;;;;5013374;28;20041;-78
2023/11/09 01:40:34;;;;;;;1.90;1.30;;;7.80;99.90;;;;;;4993397;28;20181;-78
2023/11/09 01:43:01;;;;;;;2.40;1.50;;;7.80;99.90;;;;;;5009928;28;20045;-78
2023/11/09 01:45:27;;;;;;;1.55;1.10;;;7.80;99.90;;;;;;5009059;28;20506;-78
2023/11/09 01:47:54;;;;;;;1.85;1.20;;;7.80;99.90;;;;;;5001433;28;20096;-78
2023/11/09 01:50:21;;;;;;;5.05;1.48;;;7.80;99.90;;;;;;5019076;28;20045;-78
2023/11/09 01:52:48;;;;;;;1.65;1.13;;;7.80;99.90;;;;;;5012088;28;20505;-78
2023/11/09 01:55:15;;;;;;;1.67;1.30;;;7.90;99.90;;;;;;4997795;28;20098;-78
2023/11/09 01:57:43;;;;;;;1.83;1.70;;;7.90;99.90;;;;;;5018079;28;20069;-77
2023/11/09 02:00:11;;;;;;;2.17;1.30;;;7.90;99.90;;;;;;5005979;28;20069;-78
2023/11/09 02:02:38;;;;;;;2.38;1.20;;;7.80;99.90;;;;;;5018007;28;20056;-78
2023/11/09 02:05:06;;;;;;;2.72;1.40;;;7.80;99.90;;;;;;4999725;28;20060;-78
2023/11/09 02:07:36;;;;;;;2.00;1.40;;;7.80;99.90;;;;;;5009781;28;20129;-78
2023/11/09 02:10:03;;;;;;;4.10;1.70;;;7.80;99.90;;;;;;5012523;28;20082;-78
2023/11/09 02:12:30;;;;;;;2.25;1.75;;;7.80;99.90;;;;;;5011428;28;20095;-78
2023/11/09 02:14:57;;;;;;;2.60;1.65;;;7.70;99.90;;;;;;5005898;28;20117;-78
2023/11/09 02:17:24;;;;;;;4.60;1.60;;;7.70;99.90;;;;;;5014822;28;20129;-78
2023/11/09 02:19:51;;;;;;;4.60;1.60;;;7.70;99.90;;;;;;5019843;28;20423;-78
2023/11/09 02:22:18;;;;;;;3.63;1.73;;;7.60;99.90;;;;;;5012438;28;20453;-78
2023/11/09 02:24:47;;;;;;;2.00;1.70;;;7.60;99.90;;;;;;5011533;28;20472;-78
2023/11/09 02:27:14;;;;;;;3.95;1.60;;;7.60;99.90;;;;;;5009408;28;20108;-78
2023/11/09 02:29:41;;;;;;;1.83;1.30;;;7.50;99.90;;;;;;5007671;28;20640;-78
2023/11/09 02:32:08;;;;;;;1.63;1.38;;;7.50;99.90;;;;;;5015151;28;20188;-78
2023/11/09 02:34:38;;;;;;;1.63;1.17;;;7.50;99.90;;;;;;5012018;28;20099;-78
2023/11/09 02:37:09;;;;;;;1.10;1.00;;;7.50;99.90;;;;;;4999636;28;20399;-78
2023/11/09 02:39:36;;;;;;;1.77;1.15;;;7.50;99.90;;;;;;5008612;28;20516;-78
2023/11/09 02:42:03;;;;;;;1.45;0.93;;;7.50;99.90;;;;;;5004854;28;20074;-78
2023/11/09 02:44:30;;;;;;;1.90;1.40;;;7.50;99.90;;;;;;4998952;28;20045;-78
2023/11/09 02:46:57;;;;;;;1.23;0.95;;;7.50;99.90;;;;;;5011436;28;20575;-78
2023/11/09 02:49:24;;;;;;;1.33;0.98;;;7.50;99.90;;;;;;5010772;28;20046;-78
2023/11/09 02:51:51;;;;;;;2.95;0.90;;;7.50;99.90;;;;;;4992952;28;20038;-78
2023/11/09 02:54:19;;;;;;;2.05;1.17;;;7.50;99.90;;;;;;5009845;28;20050;-78
2023/11/09 02:56:45;;;;;;;1.92;1.63;;;7.60;99.90;;;;;;4995487;28;20050;-78
2023/11/09 02:59:12;;;;;;;4.93;1.50;;;7.60;99.90;;;;;;4996366;28;20045;-78
2023/11/09 03:01:39;;;;;;;3.63;1.75;;;7.50;99.90;;;;;;5004094;28;20041;-78
2023/11/09 03:04:06;;;;;;;4.88;1.60;;;7.40;99.90;;;;;;5015053;28;20042;-78
2023/11/09 03:06:33;;;;;;;2.22;1.60;;;7.30;99.90;;;;;;5015539;28;20104;-78
2023/11/09 03:09:00;;;;;;;1.63;1.50;;;7.40;99.90;;;;;;5009173;28;20050;-78
2023/11/09 03:11:27;;;;;;;5.60;1.80;;;7.40;99.90;;;;;;5007166;28;20089;-78
2023/11/09 03:13:54;;;;;;;2.67;1.50;;;7.30;99.90;;;;;;5008582;28;20041;-78
2023/11/09 03:16:21;;;;;;;2.22;1.70;;;7.40;99.90;;;;;;5019331;28;20049;-78
2023/11/09 03:18:48;;;;;;;6.95;2.30;;;7.30;99.90;;;;;;5016012;28;20172;-78
2023/11/09 03:21:17;;;;;;;4.88;1.63;;;7.30;99.90;;;;;;5011366;28;20042;-78
2023/11/09 03:23:44;;;;;;;2.00;1.45;;;7.30;99.90;;;;;;5008453;28;20112;-78
2023/11/09 03:26:11;;;;;;;2.60;2.08;;;7.30;99.90;;;;;;5003361;28;20042;-78
2023/11/09 03:28:39;;;;;;;2.03;1.65;;;7.30;99.90;;;;;;5007684;28;20060;-77
2023/11/09 03:31:06;;;;;;;1.92;1.50;;;7.30;99.90;;;;;;5001637;28;20038;-78
2023/11/09 03:33:33;;;;;;;2.13;1.77;;;7.20;99.90;;;;;;5015117;28;20160;-78
2023/11/09 03:36:00;;;;;;;3.55;1.50;;;7.20;99.90;;;;;;5015037;28;20049;-78
2023/11/09 03:38:27;;;;;;;5.78;1.80;;;7.30;99.90;;;;;;5009187;28;20453;-77
2023/11/09 03:40:54;;;;;;;3.63;1.70;;;7.20;99.90;;;;;;4998852;28;20052;-78
2023/11/09 03:43:21;;;;;;;2.15;1.52;;;7.20;99.90;;;;;;5006306;28;20046;-78
2023/11/09 03:45:47;;;;;;;3.88;1.77;;;7.20;99.90;;;;;;5004858;28;20046;-78
2023/11/09 03:48:14;;;;;;;3.45;1.90;;;7.30;99.90;;;;;;5001785;28;20056;-78
2023/11/09 03:50:42;;;;;;;2.42;1.40;;;7.30;99.90;;;;;;5016863;28;20044;-78
2023/11/09 03:53:09;;;;;;;3.40;1.70;;;7.30;99.90;;;;;;5008181;28;20410;-78
2023/11/09 03:55:36;;;;;;;3.88;1.45;;;7.30;99.90;;;;;;5012964;28;20051;-78
2023/11/09 03:58:03;;;;;;;1.65;1.30;;;7.30;99.90;;;;;;5023456;28;20434;-78
2023/11/09 04:00:30;;;;;;;3.22;1.80;;;7.30;99.90;;;;;;5020977;28;20050;-78
2023/11/09 04:02:57;;;;;;;2.70;1.70;;;7.20;99.90;;;;;;4997403;28;20046;-78
2023/11/09 04:05:23;;;;;;;7.40;1.58;;;7.20;99.90;;;;;;5014040;28;20518;-78
2023/11/09 04:07:50;;;;;;;4.57;1.42;;;7.20;99.90;;;;;;4999909;28;20511;-78
2023/11/09 04:10:17;;;;;;;2.05;1.50;;;7.20;99.90;;;;;;5005639;28;20492;-78
2023/11/09 04:12:44;;;;;;;4.72;2.65;;;7.20;99.90;;;;;;5024320;28;20281;-77
2023/11/09 04:15:11;;;;;;;2.50;1.60;;;7.20;99.90;;;;;;5018120;28;20053;-78
2023/11/09 04:17:38;;;;;;;2.45;1.85;;;7.30;99.90;;;;;;5003828;28;20045;-78
2023/11/09 04:20:08;;;;;;;6.65;1.52;;;7.20;99.90;;;;;;5010451;28;20050;-78
2023/11/09 04:22:35;;;;;;;;;;;7.20;99.90;;;;;;5011649;28;20675;-78
2023/11/09 04:25:02;;;;;;;5.57;1.20;;;7.20;99.90;;;;;;5008023;28;19957;-77
2023/11/09 04:27:29;;;;;;;1.67;1.35;;;7.30;99.90;;;;;;5022152;28;20137;-78
2023/11/09 04:29:57;;;;;;;2.08;1.40;;;7.20;99.90;;;;;;5019185;28;20048;-78
2023/11/09 04:32:24;;;;;;;4.10;1.52;;;7.20;99.90;;;;;;5014196;28;20050;-76
2023/11/09 04:34:51;;;;;;;3.13;1.30;;;7.20;99.90;;;;;;4992518;28;20042;-78
2023/11/09 04:37:21;;;;;;;2.42;1.45;;;7.20;99.90;;;;;;5010125;28;20086;-78
2023/11/09 04:39:51;;;;;;;4.97;1.60;;;7.20;99.90;;;;;;5002873;28;20452;-78
2023/11/09 04:42:24;;;;;;;6.30;2.20;;;7.20;99.90;;;;;;5019109;28;20076;-78
2023/11/09 04:44:56;;;;;;;2.38;1.38;;;7.20;99.90;;;;;;5018948;28;20053;-78
2023/11/09 04:47:25;;;;;;;4.13;1.50;;;7.20;99.90;;;;;;5012629;28;20438;-78
2023/11/09 04:49:58;;;;;;;4.70;1.77;;;7.10;99.90;;;;;;5010037;28;20046;-78
2023/11/09 04:52:33;;;;;;;1.98;1.60;;;7.10;99.90;;;;;;5006833;28;20130;-78
2023/11/09 04:55:10;;;;;;;2.13;1.20;;;7.10;99.90;;;;;;5018223;28;20041;-78
2023/11/09 05:08:42;;;;;;;2.92;1.60;;;7.00;99.90;;;;;;5016473;28;20069;-78
2023/11/09 05:11:11;;;;;;;1.88;1.33;;;7.00;99.90;;;;;;5012759;28;20096;-77
2023/11/09 05:13:38;;;;;;;3.58;1.60;;;7.00;99.90;;;;;;5016612;28;20054;-78
2023/11/09 05:16:05;;;;;;;7.68;1.50;;;7.00;99.90;;;;;;5009639;28;20128;-78
2023/11/09 05:18:32;;;;;;;5.22;1.58;;;7.00;99.90;;;;;;4998326;28;20052;-78
2023/11/09 05:20:59;;;;;;;6.45;1.67;;;7.00;99.90;;;;;;5006765;28;20056;-78
2023/11/09 05:23:26;;;;;;;1.27;1.17;;;7.10;99.90;;;;;;5019010;28;20637;-78
2023/11/09 05:25:53;;;;;;;3.95;1.75;;;7.00;99.90;;;;;;5020650;28;20041;-78
2023/11/09 05:28:19;;;;;;;5.20;1.40;;;7.10;99.90;;;;;;5015005;28;20387;-78
2023/11/09 05:30:50;;;;;;;3.47;1.45;;;7.10;99.90;;;;;;4998086;28;20048;-78
2023/11/09 05:33:18;;;;;;;3.00;1.67;;;7.10;99.90;;;;;;5007603;28;20399;-78
2023/11/09 05:35:45;;;;;;;2.70;1.58;;;7.10;99.90;;;;;;5001435;28;20052;-78
2023/11/09 05:38:13;;;;;;;1.65;0.80;;;7.20;99.90;;;;;;5021613;28;20498;-78
2023/11/09 05:40:43;;;;;;;1.40;1.10;;;7.20;99.90;;;;;;5002803;28;20050;-78
2023/11/09 05:43:11;;;;;;;3.38;1.10;;;7.30;99.90;;;;;;5012752;28;20054;-77
2023/11/09 05:45:39;;;;;;;3.78;1.73;;;7.40;99.90;;;;;;4999558;28;20060;-78
2023/11/09 05:48:06;;;;;;;2.28;1.42;;;7.50;99.90;;;;;;5008406;28;20092;-78
2023/11/09 05:50:32;;;;;;;1.88;1.23;;;7.60;99.90;;;;;;4997081;28;20058;-78
2023/11/09 05:53:00;;;;;;;4.57;1.40;;;7.60;99.90;;;;;;5021219;28;20555;-78
2023/11/09 05:55:29;;;;;;;1.58;1.25;;;7.70;99.90;;;;;;5002544;28;20042;-78
2023/11/09 05:57:58;;;;;;;1.38;0.80;;;7.80;99.90;;;;;;5014860;28;20046;-78
2023/11/09 06:00:26;;;;;;;1.05;0.93;;;7.90;99.90;;;;;;5008941;28;20058;-77
2023/11/09 06:02:53;;;;;;;4.70;1.17;;;8.00;99.90;;;;;;4988229;28;20046;-78
2023/11/09 06:05:24;;;;;;;1.60;1.27;;;8.10;99.90;;;;;;5010529;28;20077;-78
2023/11/09 06:07:52;;;;;;;8.48;3.00;;;8.20;99.90;;;;;;5014933;28;20042;-78
2023/11/09 06:10:20;;;;;;;10.73;6.80;;;8.30;99.90;;;;;;5010713;28;20060;-78
2023/11/09 06:12:47;;;;;;;12.15;8.75;;;8.40;99.90;;;;;;5011705;28;20057;-78
2023/11/09 06:15:15;;;;;;;4.57;3.03;;;8.40;99.90;;;;;;5007012;28;20483;-78
2023/11/09 06:17:43;;;;;;;2.00;1.63;;;8.50;99.90;;;;;;5008520;28;20046;-77
2023/11/09 06:20:17;;;;;;;2.40;1.20;;;8.50;99.90;;;;;;5017815;28;20056;-78
2023/11/09 06:22:44;;;;;;;1.15;0.85;;;8.60;99.90;;;;;;5021659;28;20050;-78
2023/11/09 06:25:11;;;;;;;0.88;0.82;;;8.70;99.90;;;;;;4992399;28;20497;-78
2023/11/09 06:27:38;;;;;;;3.75;0.90;;;8.80;99.90;;;;;;5013538;28;20054;-78
2023/11/09 06:30:07;;;;;;;0.70;0.70;;;8.90;99.90;;;;;;5009588;28;20049;-78
2023/11/09 06:32:34;;;;;;;1.00;0.80;;;8.90;99.90;;;;;;5006769;28;20132;-78
2023/11/09 06:35:01;;;;;;;1.65;0.93;;;9.00;99.90;;;;;;5023936;28;20485;-78
2023/11/09 06:37:28;;;;;;;1.20;0.70;;;9.00;99.90;;;;;;5018724;28;20050;-78
2023/11/09 06:39:58;;;;;;;5.53;2.95;;;9.00;99.90;;;;;;5017142;28;20105;-78
2023/11/09 06:42:25;;;;;;;15.52;9.90;;;9.10;99.90;;;;;;5010972;28;20132;-76
2023/11/09 06:44:54;;;;;;;10.85;4.85;;;9.10;99.90;;;;;;5004161;28;20493;-78
2023/11/09 06:47:20;;;;;;;2.55;1.58;;;9.20;99.90;;;;;;5012269;28;20045;-78
2023/11/09 06:49:47;;;;;;;2.40;1.48;;;9.20;99.90;;;;;;5015232;28;20123;-78
2023/11/09 06:52:14;;;;;;;1.08;0.80;;;9.20;99.90;;;;;;5015296;28;20038;-78
2023/11/09 06:54:41;;;;;;;2.42;0.85;;;9.30;99.90;;;;;;5009937;28;20067;-78
2023/11/09 06:57:11;;;;;;;2.85;1.52;;;9.30;99.90;;;;;;5013646;28;20092;-78
2023/11/09 06:59:38;;;;;;;;;;;9.30;99.90;;;;;;5011749;28;20132;-79
2023/11/09 07:02:06;;;;;;;3.00;0.90;;;9.40;99.90;;;;;;5006969;28;19922;-79
2023/11/09 07:04:33;;;;;;;1.80;1.33;;;9.40;99.90;;;;;;5022949;28;20092;-78
2023/11/09 07:07:00;;;;;;;5.00;2.40;;;9.40;99.90;;;;;;5005500;28;20080;-78
2023/11/09 07:09:28;;;;;;;5.75;3.97;;;9.50;99.90;;;;;;5017247;28;20050;-78
2023/11/09 07:11:54;;;;;;;2.88;1.80;;;9.50;99.90;;;;;;5010512;28;20045;-78
2023/11/09 07:14:23;;;;;;;3.58;2.90;;;9.50;99.90;;;;;;5012004;28;20069;-79
2023/11/09 07:16:52;;;;;;;4.68;3.42;;;9.50;99.90;;;;;;5009419;28;20489;-78
2023/11/09 07:19:20;;;;;;;2.33;1.98;;;9.50;99.90;;;;;;5025777;28;20038;-78
2023/11/09 07:21:47;;;;;;;1.40;1.30;;;9.60;99.90;;;;;;5022821;28;20062;-78
2023/11/09 07:24:14;;;;;;;1.75;0.80;;;9.60;99.90;;;;;;5017143;28;20049;-78
2023/11/09 07:26:40;;;;;;;0.63;0.60;;;9.60;99.90;;;;;;5015167;28;20065;-78
2023/11/09 07:29:09;;;;;;;2.17;0.70;;;9.70;99.90;;;;;;5015696;28;20505;-79
2023/11/09 07:31:36;;;;;;;2.67;0.93;;;9.70;99.90;;;;;;4999331;28;20085;-79
2023/11/09 07:34:03;;;;;;;0.65;0.65;;;9.80;99.90;;;;;;5016249;28;20042;-78
2023/11/09 07:36:30;;;;;;;1.10;0.75;;;9.80;99.90;;;;;;5016258;28;20061;-81
2023/11/09 07:38:57;;;;;;;2.47;0.63;;;9.80;99.90;;;;;;5014823;28;20053;-80
2023/11/09 07:41:27;;;;;;;0.70;0.50;;;9.90;99.90;;;;;;5002381;28;20050;-80
2023/11/09 07:43:55;;;;;;;2.78;0.70;;;9.90;99.90;;;;;;5015065;28;20046;-80
2023/11/09 07:46:21;;;;;;;0.60;0.60;;;10.00;99.90;;;;;;5022203;28;20046;-80
2023/11/09 07:48:48;;;;;;;2.50;0.70;;;10.00;99.90;;;;;;5009023;28;20061;-81
2023/11/09 07:51:15;;;;;;;1.00;0.77;;;10.00;99.90;;;;;;4997250;28;20078;-80
2023/11/09 07:53:42;;;;;;;0.60;0.50;;;10.10;99.90;;;;;;5017109;28;20050;-80
2023/11/09 07:56:11;;;;;;;2.53;0.73;;;10.10;99.90;;;;;;5014553;28;20097;-80
2023/11/09 07:58:39;;;;;;;0.65;0.57;;;10.10;99.90;;;;;;5007810;28;20054;-80
2023/11/09 08:01:06;;;;;;;0.80;0.55;;;10.10;99.90;;;;;;5034300;28;20049;-80
2023/11/09 08:03:33;;;;;;;3.42;0.50;;;10.20;99.90;;;;;;5007020;28;20056;-81
2023/11/09 08:06:02;;;;;;;0.82;0.50;;;10.20;99.90;;;;;;5027383;28;20068;-81
2023/11/09 08:08:30;;;;;;;1.75;0.50;;;10.20;99.90;;;;;;5014092;28;20053;-80
2023/11/09 08:10:58;;;;;;;0.90;0.50;;;10.30;99.90;;;;;;5002987;28;20469;-81
2023/11/09 08:13:28;;;;;;;0.98;0.55;;;10.30;99.90;;;;;;5015738;28;20133;-80
2023/11/09 08:15:58;;;;;;;0.40;0.40;;;10.30;99.90;;;;;;5010358;28;20042;-81
2023/11/09 08:18:25;;;;;;;0.60;0.50;;;10.30;99.90;;;;;;5019062;28;20046;-80
2023/11/09 08:20:52;;;;;;;1.88;0.60;;;10.40;99.90;;;;;;5022407;28;20104;-80
2023/11/09 08:23:19;;;;;;;0.40;0.40;;;10.40;99.90;;;;;;5020224;28;20048;-80
2023/11/09 08:25:46;;;;;;;1.13;0.60;;;10.40;99.90;;;;;;5015844;28;20275;-80
2023/11/09 08:28:12;;;;;;;1.70;0.50;;;10.40;99.90;;;;;;5028187;23;20167;-80
2023/11/09 08:30:39;;;;;;;1.20;0.70;;;10.50;99.90;;;;;;5016156;28;20042;-78
2023/11/09 08:33:09;;;;;;;0.70;0.38;;;10.50;99.90;;;;;;5014098;28;20042;-79
2023/11/09 08:35:38;;;;;;;2.63;0.63;;;10.60;99.90;;;;;;5013521;28;20109;-80
2023/11/09 08:38:08;;;;;;;0.55;0.50;;;10.60;99.90;;;;;;5011809;28;20048;-80
2023/11/09 08:40:38;;;;;;;1.20;0.40;;;10.70;99.90;;;;;;5005818;28;20054;-81
2023/11/09 08:43:05;;;;;;;0.40;0.40;;;10.70;99.90;;;;;;5013342;28;20042;-80
2023/11/09 08:45:32;;;;;;;2.67;0.40;;;10.80;99.90;;;;;;5016287;28;20092;-81
2023/11/09 08:47:59;;;;;;;0.70;0.40;;;10.80;99.90;;;;;;5016442;28;20045;-79
2023/11/09 08:50:26;;;;;;;0.73;0.50;;;10.80;99.90;;;;;;5015119;28;20141;-79
2023/11/09 08:52:53;;;;;;;0.90;0.50;;;10.90;99.90;;;;;;5012214;28;20050;-83
2023/11/09 08:55:22;;;;;;;0.77;0.30;;;11.00;99.90;;;;;;5015302;28;20046;-80
2023/11/09 08:57:50;;;;;;;1.38;0.50;;;11.00;99.90;;;;;;5016187;28;20403;-80
2023/11/09 09:00:17;;;;;;;1.00;0.60;;;11.10;99.90;;;;;;5016408;28;20073;-79
2023/11/09 09:02:48;;;;;;;0.57;0.40;;;11.10;99.90;;;;;;5015198;28;20050;-80
2023/11/09 09:05:20;;;;;;;0.52;0.40;;;11.20;99.90;;;;;;5012512;28;20092;-82
2023/11/09 09:07:50;;;;;;;0.43;0.40;;;11.20;99.90;;;;;;5016062;28;20081;-79
2023/11/09 09:10:23;;;;;;;1.77;0.40;;;11.30;99.90;;;;;;5023813;28;20054;-79
2023/11/09 09:12:56;;;;;;;0.35;0.35;;;11.30;99.90;;;;;;5015092;28;20049;-80
2023/11/09 09:15:24;;;;;;;1.05;0.52;;;11.40;99.90;;;;;;5009101;28;20510;-79
2023/11/09 09:17:52;;;;;;;3.25;0.40;;;11.40;99.90;;;;;;5010377;28;20049;-80
2023/11/09 09:20:20;;;;;;;0.95;0.57;;;11.50;99.90;;;;;;5010922;28;20042;-80
2023/11/09 09:22:50;;;;;;;2.10;0.60;;;11.60;99.90;;;;;;5012944;28;20506;-80
2023/11/09 09:25:16;;;;;;;1.88;0.90;;;11.60;99.90;;;;;;5008517;28;20042;-81
2023/11/09 09:27:47;;;;;;;2.72;1.27;;;11.70;99.90;;;;;;5013159;28;20087;-79
2023/11/09 09:30:17;;;;;;;1.05;0.40;;;11.70;99.90;;;;;;5015361;28;20046;-78
2023/11/09 09:32:45;;;;;;;;;;;11.70;99.90;;;;;;5012988;28;20061;-77
2023/11/09 09:35:14;;;;;;;1.13;0.60;;;11.80;99.90;;;;;;5010416;28;20421;-80
2023/11/09 09:37:44;;;;;;;3.78;0.40;;;11.80;99.90;;;;;;5008898;28;20077;-81
2023/11/09 09:40:15;;;;;;;0.47;0.38;;;11.80;99.90;;;;;;5012152;28;20486;-80
2023/11/09 09:42:46;;;;;;;0.60;0.60;;;11.70;99.90;;;;;;5012921;28;20092;-80
2023/11/09 09:45:15;;;;;;;1.95;1.08;;;11.70;99.90;;;;;;5014614;28;20453;-79
2023/11/09 09:47:48;;;;;;;1.20;0.63;;;11.70;99.90;;;;;;5012488;28;20101;-80
2023/11/09 09:50:24;;;;;;;1.27;0.80;;;11.70;99.90;;;;;;5006168;28;20038;-82
2023/11/09 09:52:56;;;;;;;1.30;0.90;;;11.60;99.90;;;;;;5006629;28;20054;-79
2023/11/09 09:55:24;;;;;;;0.85;0.57;;;11.70;99.90;;;;;;5015329;28;20054;-80
2023/11/09 09:57:51;;;;;;;1.92;0.60;;;11.70;99.90;;;;;;5012011;28;20046;-79
2023/11/09 10:00:28;;;;;;;1.95;0.70;;;11.70;99.90;;;;;;5013497;28;20560;-81
2023/11/09 10:03:06;;;;;;;1.33;0.40;;;11.80;99.90;;;;;;5010224;28;20050;-79
2023/11/09 10:05:35;;;;;;;0.40;0.40;;;11.80;99.90;;;;;;5006378;28;20046;-78
2023/11/09 10:08:12;;;;;;;2.00;0.60;;;11.80;99.90;;;;;;5014557;28;20460;-81
2023/11/09 10:10:47;;;;;;;1.30;0.50;;;11.80;99.90;;;;;;5011244;28;20046;-81
2023/11/09 10:13:18;;;;;;;1.48;0.68;;;11.80;99.90;;;;;;5025681;28;20457;-81
2023/11/09 10:15:53;;;;;;;2.05;0.70;;;11.80;99.90;;;;;;5013088;28;20046;-79
2023/11/09 10:18:24;;;;;;;0.80;0.70;;;11.80;99.90;;;;;;5012160;28;20045;-80
2023/11/09 10:20:57;;;;;;;1.20;0.65;;;11.80;99.90;;;;;;5008094;28;20101;-82
2023/11/09 10:23:28;;;;;;;5.47;0.85;;;11.80;99.90;;;;;;5011265;28;20053;-80
2023/11/09 10:25:56;;;;;;;1.25;0.60;;;11.90;99.90;;;;;;5013597;28;20054;-81
2023/11/09 10:28:28;;;;;;;0.80;0.40;;;11.90;99.90;;;;;;5013725;28;20061;-82
2023/11/09 10:30:55;;;;;;;1.58;0.60;;;11.90;99.90;;;;;;5008435;28;20050;-79
2023/11/09 10:33:23;;;;;;;1.40;0.50;;;11.90;99.90;;;;;;5011196;28;20113;-83
2023/11/09 10:35:52;;;;;;;0.50;0.50;;;11.90;99.90;;;;;;5008621;28;20058;-79
2023/11/09 10:38:24;;;;;;;1.25;0.55;;;11.90;99.90;;;;;;5013423;28;20041;-81
2023/11/09 10:40:57;;;;;;;0.40;0.40;;;11.90;99.90;;;;;;5012918;28;20050;-81
2023/11/09 10:43:47;;;;;;;0.85;0.40;;;11.80;99.90;;;;;;5011792;28;20085;-81
2023/11/09 10:46:17;;;;;;;1.75;0.60;;;11.90;99.90;;;;;;5008162;28;20046;-79
2023/11/09 10:48:48;;;;;;;;;;;11.80;99.90;;;;;;5005600;28;20057;-81
2023/11/09 10:51:17;;;;;;;1.08;0.50;;;11.80;99.90;;;;;;5027057;28;19925;-80
2023/11/09 10:53:47;;;;;;;2.70;0.50;;;11.90;99.90;;;;;;5013353;28;20054;-81
2023/11/09 10:56:16;;;;;;;3.55;0.98;;;11.80;99.90;;;;;;5012929;28;20038;-81
2023/11/09 10:58:44;;;;;;;1.80;0.52;;;11.90;99.90;;;;;;5011985;28;20050;-80
2023/11/09 11:01:20;;;;;;;1.90;0.70;;;11.90;99.90;;;;;;5011277;28;20050;-79
2023/11/09 11:03:54;;;;;;;0.93;0.60;;;11.90;99.90;;;;;;5012644;28;20293;-80
2023/11/09 11:06:33;;;;;;;1.00;0.80;;;11.90;99.90;;;;;;5009879;28;20050;-79
2023/11/09 11:09:07;;;;;;;1.25;0.45;;;11.90;99.90;;;;;;5017999;28;20064;-81
2023/11/09 11:11:36;;;;;;;2.58;0.70;;;11.90;99.90;;;;;;5013988;28;20042;-79
2023/11/09 11:14:11;;;;;;;1.77;0.65;;;11.90;99.90;;;;;;5008150;28;20057;-79
2023/11/09 11:16:53;;;;;;;0.68;0.68;;;12.00;99.90;;;;;;5005662;28;20125;-80
2023/11/09 11:19:27;;;;;;;0.98;0.63;;;12.00;99.90;;;;;;5011216;28;20042;-80
2023/11/09 11:22:01;;;;;;;2.75;1.15;;;12.00;99.90;;;;;;5013383;28;20084;-82
2023/11/09 11:25:06;;;;;;;0.88;0.70;;;12.00;99.90;;;;;;5011911;28;20050;-81
2023/11/09 11:28:00;;;;;;;1.20;0.77;;;12.00;99.90;;;;;;5008583;28;20054;-77
2023/11/09 11:30:32;;;;;;;4.30;1.23;;;12.00;99.90;;;;;;5008071;28;20053;-83
2023/11/09 11:33:04;;;;;;;1.02;0.60;;;12.10;99.90;;;;;;5003398;28;20429;-82
2023/11/09 11:35:34;;;;;;;2.08;1.20;;;12.00;99.90;;;;;;5014013;28;20046;-81
2023/11/09 11:38:26;;;;;;;0.90;0.70;;;12.00;99.90;;;;;;5011794;28;20050;-80
2023/11/09 11:41:05;;;;;;;0.50;0.50;;;12.00;99.90;;;;;;5012866;28;20530;-80
2023/11/09 11:43:42;;;;;;;2.58;0.85;;;12.10;99.90;;;;;;5007813;28;20046;-80
2023/11/09 11:46:17;;;;;;;3.40;0.88;;;12.00;99.90;;;;;;5009133;28;20112;-82
2023/11/09 11:48:57;;;;;;;1.50;0.60;;;12.00;99.90;;;;;;5013679;28;20100;-81
2023/11/09 11:51:26;;;;;;;0.85;0.70;;;12.00;99.90;;;;;;5012370;28;20092;-81
2023/11/09 11:54:09;;;;;;;1.58;0.52;;;12.00;99.90;;;;;;5015688;28;20046;-80
2023/11/09 11:56:38;;;;;;;1.55;0.50;;;12.00;99.90;;;;;;5019267;28;20108;-81
2023/11/09 11:59:07;;;;;;;0.70;0.50;;;12.10;99.90;;;;;;5015446;28;20138;-79
2023/11/09 12:01:34;;;;;;;0.60;0.50;;;12.00;99.90;;;;;;5016418;28;20065;-82
2023/11/09 12:04:06;;;;;;;0.60;0.60;;;12.00;99.90;;;;;;5016188;28;20583;-79
2023/11/09 12:06:36;;;;;;;1.10;1.00;;;12.00;99.90;;;;;;5014016;28;20077;-82
2023/11/09 12:09:08;;;;;;;1.20;1.10;;;12.00;99.90;;;;;;5014089;28;20057;-82
2023/11/09 12:11:45;;;;;;;1.20;0.65;;;12.10;99.90;;;;;;5011620;28;20421;-79
2023/11/09 12:14:13;;;;;;;0.80;0.60;;;12.00;99.90;;;;;;5010215;28;20145;-79
2023/11/09 12:16:41;;;;;;;0.30;0.30;;;12.00;99.90;;;;;;5009832;28;20049;-80
2023/11/09 12:19:11;;;;;;;2.22;0.38;;;12.00;99.90;;;;;;5015657;28;20050;-80
2023/11/09 12:21:39;;;;;;;0.50;0.50;;;12.00;99.90;;;;;;5010674;28;20081;-80
2023/11/09 12:24:12;;;;;;;0.63;0.50;;;12.00;99.90;;;;;;5016127;28;20129;-81
2023/11/09 12:26:39;;;;;;;1.00;0.60;;;12.00;99.90;;;;;;5010715;28;20065;-83
2023/11/09 12:29:06;;;;;;;0.70;0.70;;;12.00;99.90;;;;;;5014437;28;20101;-81
2023/11/09 12:31:33;;;;;;;0.47;0.47;;;11.90;99.90;;;;;;5016222;28;20050;-82
2023/11/09 12:34:05;;;;;;;0.82;0.40;;;11.90;99.90;;;;;;5016416;28;20088;-80
2023/11/09 12:36:41;;;;;;;1.08;0.65;;;11.90;99.90;;;;;;5015420;28;20100;-82
2023/11/09 12:41:51;;;;;;;1.40;1.08;;;11.80;99.90;;;;;;5014217;28;20053;-79
2023/11/09 12:44:29;;;;;;;2.50;1.10;;;11.80;99.90;;;;;;5005574;28;20112;-80
2023/11/09 12:46:58;;;;;;;2.65;0.90;;;11.70;99.90;;;;;;5013157;28;20058;-80
2023/11/09 12:49:31;;;;;;;1.17;0.70;;;11.60;99.90;;;;;;5016260;28;20108;-79
2023/11/09 12:52:00;;;;;;;1.33;0.70;;;11.50;99.90;;;;;;5015727;28;20046;-80
2023/11/09 12:54:28;;;;;;;0.80;0.50;;;11.40;99.90;;;;;;5010199;28;20054;-79
2023/11/09 12:56:58;;;;;;;1.88;1.17;;;11.40;99.90;;;;;;5007054;28;20494;-80
2023/11/09 12:59:28;;;;;;;1.98;1.48;;;11.30;99.90;;;;;;5009598;28;20585;-81
2023/11/09 13:01:57;;;;;;;1.40;0.95;;;11.30;99.90;;;;;;5013107;28;20050;-81
2023/11/09 13:04:28;;;;;;;2.42;0.80;;;11.30;99.90;;;;;;5012492;28;20057;-80
2023/11/09 13:06:56;;;;;;;1.33;0.90;;;11.30;99.90;;;;;;5012549;28;20494;-80
2023/11/09 13:17:56;;;;;;;2.00;0.70;;;11.30;99.90;;;;;;5002907;28;20089;-80
2023/11/09 13:20:28;;;;;;;1.55;0.77;;;11.20;99.90;;;;;;5011066;28;20489;-80
2023/11/09 13:23:07;;;;;;;1.13;0.70;;;11.20;99.90;;;;;;5010619;28;20060;-81
2023/11/09 13:25:39;;;;;;;0.93;0.73;;;11.20;99.90;;;;;;5006271;28;20052;-82